Nearby METAR Reports

 

KSFB - Sanford/Orlando, Florida, USA
Distance from station: O 8mi, 12km
aktuell: Fri 11/24/17 10:53am EST
sehr leichter Niederschlag, Mist, geschlossene Wolkendecke
sehr leichter Niederschlag, Mist, geschlossene Wolkendecke
 Wind von NW
Wind: NW 10 mph , 17 km/h
Temperatur: 61°F , 16°C
Taupunkt: 59°F , 15°C
Luftfeuchte: 94%
Luftdruck: 29.91 inHg , 1012.9 hPa
Zusammenfassung: sehr leichter Niederschlag, Mist
Clouds: geschlossene Wolkendecke
Visibility: 6 miles , 10 km
Cloud details: geschlossene Wolkendecke 900 ft
2017/11/24 15:53 KSFB 241553Z 32009KT 6SM -RA BR OVC009 16/15 A2991 RMK AO2 RAB21 CIG 007V013 SLP129 P0000 T01610150
KORL - Orlando, Florida, USA
Distance from station: S 15mi, 24km
aktuell: Fri 11/24/17 11:27am EST
sehr leichter Niederschlag, Mist, geschlossene Wolkendecke
sehr leichter Niederschlag, Mist, geschlossene Wolkendecke
 Wind von NW
Wind: NW 8 mph , 13 km/h
Temperatur: 63°F , 17°C
Taupunkt: 61°F , 16°C
Luftfeuchte: 94%
Luftdruck: 29.92 inHg , 1013.2 hPa
Zusammenfassung: sehr leichter Niederschlag, Mist
Clouds: geschlossene Wolkendecke
Visibility: 2 1/2 miles , 4 km
Cloud details: geschlossene Wolkendecke 700 ft
2017/11/24 16:27 KORL 241627Z 32007KT 2 1/2SM R07/6000VP6000FT -RA BR OVC007 17/16 A2992 RMK AO2 VIS 1 3/4V5 RAB1554 CIG 005V011 P0001 T01670161
 
KDED - Deland, Florida, USA
Distance from station: N 21mi, 34km
aktuell: Fri 11/24/17 11:35am EST
geschlossene Wolkendecke
geschlossene Wolkendecke
 Wind von NNW
Wind: NNW 12 mph , 19 km/h, Windböen: 17 mph , 28 km/h
Temperatur: 61°F , 16°C
Taupunkt: 59°F , 15°C
Luftfeuchte: 94%
Luftdruck: 29.91 inHg , 1012.9 hPa
Clouds: geschlossene Wolkendecke
Visibility: 10 miles , 16 km
Cloud details: geschlossene Wolkendecke 900 ft
2017/11/24 16:35 KDED 241635Z AUTO 34010G15KT 10SM OVC009 16/15 A2991 RMK AO2
KMCO - Orlando, Florida, USA
Distance from station: S 24mi, 39km
aktuell: Fri 11/24/17 11:39am EST
Light drizzle, Mist, geschlossene Wolkendecke
Light drizzle, Mist, geschlossene Wolkendecke
 Wind von NW
Wind: NW 9 mph , 15 km/h
Temperatur: 63°F , 17°C
Taupunkt: 61°F , 16°C
Luftfeuchte: 94%
Luftdruck: 29.92 inHg , 1013.2 hPa
Zusammenfassung: Light drizzle, Mist
Clouds: geschlossene Wolkendecke
Visibility: 2 1/2 miles , 4 km
Cloud details: Few Clouds 700 ft
geschlossene Wolkendecke 1100 ft
2017/11/24 16:39 KMCO 241639Z 32008KT 2 1/2SM -DZ BR FEW007 OVC011 17/16 A2992 RMK AO2 DZB29 P0000 T01670161
 
KLEE - Leesburg, Florida, USA
Distance from station: W 29mi, 47km
aktuell: Fri 11/24/17 11:26am EST
sehr leichter Niederschlag, geschlossene Wolkendecke
sehr leichter Niederschlag, geschlossene Wolkendecke
 Wind von NNW
Wind: NNW 8 mph , 13 km/h
Temperatur: 63°F , 17°C
Taupunkt: 61°F , 16°C
Luftfeuchte: 94%
Luftdruck: 29.94 inHg , 1013.9 hPa
Zusammenfassung: sehr leichter Niederschlag
Clouds: geschlossene Wolkendecke
Visibility: 7 miles , 11 km
Cloud details: stark bewölkt 800 ft
stark bewölkt 1500 ft
geschlossene Wolkendecke 3800 ft
2017/11/24 16:26 KLEE 241626Z 33007KT 7SM -RA BKN008 BKN015 OVC038 17/16 A2994 RMK AO2 RAB14 CIG 005V011 P0000 T01670161
KEVB - New Smyrna Beach, Florida, USA
Distance from station: NO 31mi, 49km
aktuell: Fri 11/24/17 10:50am EST
stark bewölkt
stark bewölkt
 Wind von NW
Wind: NW 10 mph , 17 km/h
Temperatur: 64°F , 18°C
Taupunkt: 61°F , 16°C
Luftfeuchte: 88%
Luftdruck: 29.90 inHg , 1012.5 hPa
Clouds: stark bewölkt
Visibility: 7 miles , 11 km
Cloud details: stark bewölkt 1200 ft
2017/11/24 15:50 KEVB 241550Z 32009KT 7SM BKN012 18/16 A2990
 
KDAB - Daytona Beach, Florida, USA
Distance from station: NNO 33mi, 53km
aktuell: Fri 11/24/17 10:53am EST
sehr leichter Niederschlag, geschlossene Wolkendecke
sehr leichter Niederschlag, geschlossene Wolkendecke
 Wind von NNW
Wind: NNW 12 mph , 19 km/h
Temperatur: 63°F , 17°C
Taupunkt: 61°F , 16°C
Luftfeuchte: 94%
Luftdruck: 29.90 inHg , 1012.5 hPa
Zusammenfassung: sehr leichter Niederschlag
Clouds: geschlossene Wolkendecke
Visibility: 9 miles , 14 km
Cloud details: geschlossene Wolkendecke 700 ft
2017/11/24 15:53 KDAB 241553Z 33010KT 9SM -RA OVC007 17/16 A2990 RMK AO2 LTG DSNT NE RAE1456B20 SLP125 P0000 T01670161 $
KISM - Kissimmee/Orland, Florida, USA
Distance from station: S 34mi, 55km
aktuell: Fri 11/24/17 10:56am EST
geschlossene Wolkendecke
geschlossene Wolkendecke
 Wind von NNW
Wind: NNW 10 mph , 17 km/h
Temperatur: 64°F , 18°C
Taupunkt: 61°F , 16°C
Luftfeuchte: 88%
Luftdruck: 29.93 inHg , 1013.5 hPa
Clouds: geschlossene Wolkendecke
Visibility: 10 miles , 16 km
Cloud details: geschlossene Wolkendecke 1300 ft
2017/11/24 15:56 KISM 241556Z 33009KT 10SM OVC013 18/16 A2993 RMK AO2 RAB40E51 SLP137 P0000 T01780156
 
KTIX - Titusville, Florida, USA
Distance from station: OSO 38mi, 61km
aktuell: Fri 11/24/17 10:47am EST
geschlossene Wolkendecke
geschlossene Wolkendecke
 Wind von NW
Wind: NW 12 mph , 19 km/h
Temperatur: 64°F , 18°C
Taupunkt: 64°F , 18°C
Luftfeuchte: 100%
Luftdruck: 29.89 inHg , 1012.2 hPa
Clouds: geschlossene Wolkendecke
Visibility: 7 miles , 11 km
Cloud details: geschlossene Wolkendecke 1000 ft
2017/11/24 15:47 KTIX 241547Z 32010KT 7SM OVC010 18/18 A2989
KOMN - Ormond Beach Vor, Florida, USA
Distance from station: NNO 39mi, 63km
aktuell: Fri 11/24/17 10:50am EST
geschlossene Wolkendecke
geschlossene Wolkendecke
 Wind von NNW
Wind: NNW 12 mph , 19 km/h, Windböen: 17 mph , 28 km/h
Temperatur: 61°F , 16°C
Taupunkt: 61°F , 16°C
Luftfeuchte: 100%
Luftdruck: 29.90 inHg , 1012.5 hPa
Clouds: geschlossene Wolkendecke
Visibility: 7 miles , 11 km
Cloud details: stark bewölkt 700 ft
geschlossene Wolkendecke 1000 ft
2017/11/24 15:50 KOMN 241550Z 33010G15KT 7SM BKN007 OVC010 16/16 A2990
 
KTTS - Nasa Shuttle Fcl, Florida, USA
Distance from station: OSO 39mi, 63km
aktuell: Fri 11/24/17 10:58am EST
geschlossene Wolkendecke
geschlossene Wolkendecke
 Wind von NNW
Wind: NNW 9 mph , 15 km/h
Temperatur: 66°F , 19°C
Taupunkt: 66°F , 19°C
Luftfeuchte: 100%
Luftdruck: 29.87 inHg , 1011.5 hPa
Clouds: geschlossene Wolkendecke
Visibility: 10 miles , 16 km
Cloud details: geschlossene Wolkendecke 1000 ft
2017/11/24 15:58 KTTS 241558Z AUTO 33008KT 10SM OVC010 19/19 A2987 RMK AO2 SLP119 T01890187
KVVG - The Villages, Florida, USA
Distance from station: WNW 40mi, 64km
aktuell: Fri 11/24/17 11:10am EST

 Wind von O
Wind: O 9 mph , 15 km/h
Temperatur: 61°F , 16°C
Taupunkt: 61°F , 16°C
Luftfeuchte: 100%
Luftdruck: 29.84 inHg , 1010.5 hPa
Visibility: 10 miles , 16 km
2017/11/24 16:10 KVVG 241610Z AUTO 08008KT 10SM 16/16 A2984 RMK A01
 
KXMR - Cape Canaveral, Florida, USA
Distance from station: OSO 51mi, 83km
aktuell: Fri 11/24/17 11:13am EST
geschlossene Wolkendecke
geschlossene Wolkendecke
 Wind von WNW
Wind: WNW 14 mph , 22 km/h
Temperatur: 66°F , 19°C
Taupunkt: 61°F , 16°C
Luftfeuchte: 83%
Luftdruck: 29.87 inHg , 1011.5 hPa
Clouds: geschlossene Wolkendecke
Visibility: 10 miles , 16 km
Cloud details: geschlossene Wolkendecke 1000 ft
2017/11/24 16:13 KXMR 241613Z AUTO 30012KT 10SM OVC010 19/16 A2987 RMK AO2 SLP118 $
KGIF - Winter Haven, Florida, USA
Distance from station: SSW 55mi, 88km
aktuell: Fri 11/24/17 10:53am EST
geschlossene Wolkendecke
geschlossene Wolkendecke
 Wind von NNW
Wind: NNW 12 mph , 19 km/h
Temperatur: 63°F , 17°C
Taupunkt: 61°F , 16°C
Luftfeuchte: 94%
Luftdruck: 29.94 inHg , 1013.9 hPa
Clouds: geschlossene Wolkendecke
Visibility: 10 miles , 16 km
Cloud details: geschlossene Wolkendecke 1100 ft
2017/11/24 15:53 KGIF 241553Z AUTO 33010KT 10SM OVC011 17/16 A2994 RMK AO2 SLP136 T01720156
 
KCOF - Patrick Afb/Coco, Florida, USA
Distance from station: SO 58mi, 94km
aktuell: Fri 11/24/17 11:33am EST
geschlossene Wolkendecke
geschlossene Wolkendecke
 Wind von WNW
Wind: WNW 13 mph , 20 km/h
Temperatur: 66°F , 19°C
Taupunkt: 64°F , 18°C
Luftfeuchte: 94%
Luftdruck: 29.88 inHg , 1011.9 hPa
Clouds: geschlossene Wolkendecke
Visibility: 10 miles , 16 km
Cloud details: geschlossene Wolkendecke 1000 ft
2017/11/24 16:33 KCOF 241633Z AUTO 30011KT 10SM OVC010 19/18 A2988 RMK AO2 SLP123
KINF - Inverness, Florida, USA
Distance from station: W 59mi, 95km
aktuell: Fri 11/24/17 11:35am EST
geschlossene Wolkendecke
geschlossene Wolkendecke
 Wind von N
Wind: N 5 mph , 7 km/h
Temperatur: 61°F , 16°C
Taupunkt: 61°F , 16°C
Luftfeuchte: 100%
Luftdruck: 29.95 inHg , 1014.2 hPa
Clouds: geschlossene Wolkendecke
Visibility: 10 miles , 16 km
Cloud details: geschlossene Wolkendecke 700 ft
2017/11/24 16:35 KINF 241635Z AUTO 35004KT 10SM OVC007 16/16 A2995 RMK AO2
 
KOCF - Ocala Muni, Florida, USA
Distance from station: WNW 60mi, 96km
aktuell: Fri 11/24/17 10:51am EST
geschlossene Wolkendecke
geschlossene Wolkendecke
 Wind von N
Wind: N 13 mph , 20 km/h
Temperatur: 59°F , 15°C
Taupunkt: 57°F , 14°C
Luftfeuchte: 94%
Luftdruck: 29.96 inHg , 1014.6 hPa
Clouds: geschlossene Wolkendecke
Visibility: 10 miles , 16 km
Cloud details: geschlossene Wolkendecke 600 ft
2017/11/24 15:51 KOCF 241551Z 35011KT 10SM OVC006 15/14 A2996 RMK AO2 SLP148 T01500139
KZPH - Zephyrhills, Florida, USA
Distance from station: SW 61mi, 99km
aktuell: Fri 11/24/17 11:55am EST
Mist, geschlossene Wolkendecke
Mist, geschlossene Wolkendecke
 Wind von calm
Wind: Windstill
Temperatur: 63°F , 17°C
Taupunkt: 61°F , 16°C
Luftfeuchte: 94%
Luftdruck: 29.95 inHg , 1014.2 hPa
Zusammenfassung: Mist
Clouds: geschlossene Wolkendecke
Visibility: 2 miles , 3 km
Cloud details: teilweise bewölkt 500 ft
geschlossene Wolkendecke 1000 ft
2017/11/24 16:55 KZPH 241655Z AUTO 00000KT 2SM BR SCT005 OVC010 17/16 A2995 RMK AO2 T01670161
 
KMLB - Melbourne, Florida, USA
Distance from station: SO 62mi, 100km
aktuell: Fri 11/24/17 10:53am EST
geschlossene Wolkendecke
geschlossene Wolkendecke
 Wind von WNW
Wind: WNW 15 mph , 24 km/h
Temperatur: 66°F , 19°C
Taupunkt: 64°F , 18°C
Luftfeuchte: 94%
Luftdruck: 29.89 inHg , 1012.2 hPa
Clouds: geschlossene Wolkendecke
Visibility: 10 miles , 16 km
Cloud details: geschlossene Wolkendecke 800 ft
2017/11/24 15:53 KMLB 241553Z 30013KT 10SM OVC008 19/18 A2989 RMK AO2 SLP120 T01940178
KBOW - Bartow Municipal, Florida, USA
Distance from station: SSW 63mi, 102km
aktuell: Fri 11/24/17 10:59am EST
geschlossene Wolkendecke
geschlossene Wolkendecke
 Wind von NNW
Wind: NNW 8 mph , 13 km/h
Temperatur: 63°F , 17°C
Taupunkt: 61°F , 16°C
Luftfeuchte: 94%
Luftdruck: 29.93 inHg , 1013.5 hPa
Clouds: geschlossene Wolkendecke
Visibility: 7 miles , 11 km
Cloud details: geschlossene Wolkendecke 1200 ft
2017/11/24 15:59 KBOW 241559Z 33007KT 7SM OVC012 17/16 A2993